sensor_id;sensor_type;location;lat;lon;timestamp;temperature;humidity
19803;DHT22;66074;50.764;6.090;2023-11-21T00:01:38;10.50;99.90
19803;DHT22;66074;50.764;6.090;2023-11-21T00:04:04;10.50;99.90
19803;DHT22;66074;50.764;6.090;2023-11-21T00:06:29;10.50;99.90
19803;DHT22;66074;50.764;6.090;2023-11-21T00:08:56;10.50;99.90
19803;DHT22;66074;50.764;6.090;2023-11-21T00:11:21;10.60;99.90
19803;DHT22;66074;50.764;6.090;2023-11-21T00:13:47;10.50;99.90
19803;DHT22;66074;50.764;6.090;2023-11-21T00:16:13;10.50;99.90
19803;DHT22;66074;50.764;6.090;2023-11-21T00:18:39;10.50;99.90
19803;DHT22;66074;50.764;6.090;2023-11-21T00:21:05;10.40;99.90
19803;DHT22;66074;50.764;6.090;2023-11-21T00:23:30;10.40;99.90
19803;DHT22;66074;50.764;6.090;2023-11-21T00:25:56;10.50;99.90
19803;DHT22;66074;50.764;6.090;2023-11-21T00:28:22;10.50;99.90
19803;DHT22;66074;50.764;6.090;2023-11-21T00:30:47;10.30;99.90
19803;DHT22;66074;50.764;6.090;2023-11-21T00:33:13;10.30;99.90
19803;DHT22;66074;50.764;6.090;2023-11-21T00:35:39;10.20;99.90
19803;DHT22;66074;50.764;6.090;2023-11-21T00:38:04;10.20;99.90
19803;DHT22;66074;50.764;6.090;2023-11-21T00:40:30;10.20;99.90
19803;DHT22;66074;50.764;6.090;2023-11-21T00:42:56;10.20;99.90
19803;DHT22;66074;50.764;6.090;2023-11-21T00:45:22;10.20;99.90
19803;DHT22;66074;50.764;6.090;2023-11-21T00:47:48;10.20;99.90
19803;DHT22;66074;50.764;6.090;2023-11-21T00:50:15;10.20;99.90
19803;DHT22;66074;50.764;6.090;2023-11-21T00:52:41;10.20;99.90
19803;DHT22;66074;50.764;6.090;2023-11-21T00:55:07;10.10;99.90
19803;DHT22;66074;50.764;6.090;2023-11-21T00:57:34;10.10;99.90
19803;DHT22;66074;50.764;6.090;2023-11-21T01:00:00;10.10;99.90
19803;DHT22;66074;50.764;6.090;2023-11-21T01:02:25;10.20;99.90
19803;DHT22;66074;50.764;6.090;2023-11-21T01:04:51;10.10;99.90
19803;DHT22;66074;50.764;6.090;2023-11-21T01:07:17;10.10;99.90
19803;DHT22;66074;50.764;6.090;2023-11-21T01:09:46;10.10;99.90
19803;DHT22;66074;50.764;6.090;2023-11-21T01:12:11;10.20;99.90
19803;DHT22;66074;50.764;6.090;2023-11-21T01:14:37;10.20;99.90
19803;DHT22;66074;50.764;6.090;2023-11-21T01:17:03;10.10;99.90
19803;DHT22;66074;50.764;6.090;2023-11-21T01:19:30;10.10;99.90
19803;DHT22;66074;50.764;6.090;2023-11-21T01:21:55;10.20;99.90
19803;DHT22;66074;50.764;6.090;2023-11-21T01:24:23;10.20;99.90
19803;DHT22;66074;50.764;6.090;2023-11-21T01:26:49;10.30;99.90
19803;DHT22;66074;50.764;6.090;2023-11-21T01:29:14;10.40;99.90
19803;DHT22;66074;50.764;6.090;2023-11-21T01:31:40;10.40;99.90
19803;DHT22;66074;50.764;6.090;2023-11-21T01:34:06;10.50;99.90
19803;DHT22;66074;50.764;6.090;2023-11-21T01:36:33;10.50;99.90
19803;DHT22;66074;50.764;6.090;2023-11-21T01:38:59;10.70;99.90
19803;DHT22;66074;50.764;6.090;2023-11-21T01:41:28;10.50;99.90
19803;DHT22;66074;50.764;6.090;2023-11-21T01:43:54;10.60;99.90
19803;DHT22;66074;50.764;6.090;2023-11-21T01:46:21;10.50;99.90
19803;DHT22;66074;50.764;6.090;2023-11-21T01:48:48;10.50;99.90
19803;DHT22;66074;50.764;6.090;2023-11-21T01:51:14;10.50;99.90
19803;DHT22;66074;50.764;6.090;2023-11-21T01:53:40;10.50;99.90
19803;DHT22;66074;50.764;6.090;2023-11-21T01:56:07;10.60;99.90
19803;DHT22;66074;50.764;6.090;2023-11-21T01:58:34;10.60;99.90
19803;DHT22;66074;50.764;6.090;2023-11-21T02:00:59;10.60;99.90
19803;DHT22;66074;50.764;6.090;2023-11-21T02:03:25;10.70;99.90
19803;DHT22;66074;50.764;6.090;2023-11-21T02:05:52;10.70;99.90
19803;DHT22;66074;50.764;6.090;2023-11-21T02:08:19;10.70;99.90
19803;DHT22;66074;50.764;6.090;2023-11-21T02:10:45;10.70;99.90
19803;DHT22;66074;50.764;6.090;2023-11-21T02:13:11;10.70;99.90
19803;DHT22;66074;50.764;6.090;2023-11-21T02:15:37;10.70;99.90
19803;DHT22;66074;50.764;6.090;2023-11-21T02:18:04;10.70;99.90
19803;DHT22;66074;50.764;6.090;2023-11-21T02:20:31;10.80;99.90
19803;DHT22;66074;50.764;6.090;2023-11-21T02:23:00;10.70;99.90
19803;DHT22;66074;50.764;6.090;2023-11-21T02:25:27;10.70;99.90
19803;DHT22;66074;50.764;6.090;2023-11-21T02:27:57;10.70;99.90
19803;DHT22;66074;50.764;6.090;2023-11-21T02:30:23;10.80;99.90
19803;DHT22;66074;50.764;6.090;2023-11-21T02:32:50;10.70;99.90
19803;DHT22;66074;50.764;6.090;2023-11-21T02:35:18;10.70;99.90
19803;DHT22;66074;50.764;6.090;2023-11-21T02:37:46;10.60;99.90
19803;DHT22;66074;50.764;6.090;2023-11-21T02:40:12;10.70;99.90
19803;DHT22;66074;50.764;6.090;2023-11-21T02:42:39;10.60;99.90
19803;DHT22;66074;50.764;6.090;2023-11-21T02:45:06;10.60;99.90
19803;DHT22;66074;50.764;6.090;2023-11-21T02:47:32;10.60;99.90
19803;DHT22;66074;50.764;6.090;2023-11-21T02:49:59;10.60;99.90
19803;DHT22;66074;50.764;6.090;2023-11-21T02:52:24;10.60;99.90
19803;DHT22;66074;50.764;6.090;2023-11-21T02:54:50;10.60;99.90
19803;DHT22;66074;50.764;6.090;2023-11-21T02:57:16;10.60;99.90
19803;DHT22;66074;50.764;6.090;2023-11-21T02:59:42;10.60;99.90
19803;DHT22;66074;50.764;6.090;2023-11-21T03:02:08;10.50;99.90
19803;DHT22;66074;50.764;6.090;2023-11-21T03:04:34;10.60;99.90
19803;DHT22;66074;50.764;6.090;2023-11-21T03:07:00;10.60;99.90
19803;DHT22;66074;50.764;6.090;2023-11-21T03:09:25;10.60;99.90
19803;DHT22;66074;50.764;6.090;2023-11-21T03:11:52;10.60;99.90
19803;DHT22;66074;50.764;6.090;2023-11-21T03:14:18;10.70;99.90
19803;DHT22;66074;50.764;6.090;2023-11-21T03:16:44;10.60;99.90
19803;DHT22;66074;50.764;6.090;2023-11-21T03:19:11;10.60;99.90
19803;DHT22;66074;50.764;6.090;2023-11-21T03:21:36;10.60;99.90
19803;DHT22;66074;50.764;6.090;2023-11-21T03:24:03;10.70;99.90
19803;DHT22;66074;50.764;6.090;2023-11-21T03:26:28;10.70;99.90
19803;DHT22;66074;50.764;6.090;2023-11-21T03:28:55;10.70;99.90
19803;DHT22;66074;50.764;6.090;2023-11-21T03:31:21;10.70;99.90
19803;DHT22;66074;50.764;6.090;2023-11-21T03:33:46;10.70;99.90
19803;DHT22;66074;50.764;6.090;2023-11-21T03:36:13;10.80;99.90
19803;DHT22;66074;50.764;6.090;2023-11-21T03:38:40;10.80;99.90
19803;DHT22;66074;50.764;6.090;2023-11-21T03:41:07;10.80;99.90
19803;DHT22;66074;50.764;6.090;2023-11-21T03:43:36;10.80;99.90
19803;DHT22;66074;50.764;6.090;2023-11-21T03:46:01;10.80;99.90
19803;DHT22;66074;50.764;6.090;2023-11-21T03:48:27;10.80;99.90
19803;DHT22;66074;50.764;6.090;2023-11-21T03:50:53;10.70;99.90
19803;DHT22;66074;50.764;6.090;2023-11-21T03:53:19;10.70;99.90
19803;DHT22;66074;50.764;6.090;2023-11-21T03:55:44;10.80;99.90
19803;DHT22;66074;50.764;6.090;2023-11-21T03:58:10;10.80;99.90
19803;DHT22;66074;50.764;6.090;2023-11-21T04:00:35;10.80;99.90
19803;DHT22;66074;50.764;6.090;2023-11-21T04:03:01;10.90;99.90
19803;DHT22;66074;50.764;6.090;2023-11-21T04:05:27;10.90;99.90
19803;DHT22;66074;50.764;6.090;2023-11-21T04:07:53;11.00;99.90
19803;DHT22;66074;50.764;6.090;2023-11-21T04:10:19;11.00;99.90
19803;DHT22;66074;50.764;6.090;2023-11-21T04:12:44;11.00;99.90
19803;DHT22;66074;50.764;6.090;2023-11-21T04:15:14;11.10;99.90
19803;DHT22;66074;50.764;6.090;2023-11-21T04:17:40;11.10;99.90
19803;DHT22;66074;50.764;6.090;2023-11-21T04:20:07;11.00;99.90
19803;DHT22;66074;50.764;6.090;2023-11-21T04:22:36;11.00;99.90
19803;DHT22;66074;50.764;6.090;2023-11-21T04:25:04;11.00;99.90
19803;DHT22;66074;50.764;6.090;2023-11-21T04:27:29;10.90;99.90
19803;DHT22;66074;50.764;6.090;2023-11-21T04:29:55;10.90;99.90
19803;DHT22;66074;50.764;6.090;2023-11-21T04:32:21;10.90;99.90
19803;DHT22;66074;50.764;6.090;2023-11-21T04:34:46;10.90;99.90
19803;DHT22;66074;50.764;6.090;2023-11-21T04:37:12;10.90;99.90
19803;DHT22;66074;50.764;6.090;2023-11-21T04:39:37;10.80;99.90
19803;DHT22;66074;50.764;6.090;2023-11-21T04:42:03;10.80;99.90
19803;DHT22;66074;50.764;6.090;2023-11-21T04:44:29;10.80;99.90
19803;DHT22;66074;50.764;6.090;2023-11-21T04:46:54;10.80;99.90
19803;DHT22;66074;50.764;6.090;2023-11-21T04:49:21;10.80;99.90
19803;DHT22;66074;50.764;6.090;2023-11-21T04:51:46;10.80;99.90
19803;DHT22;66074;50.764;6.090;2023-11-21T04:54:12;10.80;99.90
19803;DHT22;66074;50.764;6.090;2023-11-21T04:56:37;10.80;99.90
19803;DHT22;66074;50.764;6.090;2023-11-21T04:59:03;10.80;99.90
19803;DHT22;66074;50.764;6.090;2023-11-21T05:01:30;10.80;99.90
19803;DHT22;66074;50.764;6.090;2023-11-21T05:03:55;10.80;99.90
19803;DHT22;66074;50.764;6.090;2023-11-21T05:06:22;10.80;99.90
19803;DHT22;66074;50.764;6.090;2023-11-21T05:08:49;10.80;99.90
19803;DHT22;66074;50.764;6.090;2023-11-21T05:11:28;10.80;99.90
19803;DHT22;66074;50.764;6.090;2023-11-21T05:13:54;10.90;99.90
19803;DHT22;66074;50.764;6.090;2023-11-21T05:16:21;10.80;99.90
19803;DHT22;66074;50.764;6.090;2023-11-21T05:18:47;10.90;99.90
19803;DHT22;66074;50.764;6.090;2023-11-21T05:21:13;10.80;99.90
19803;DHT22;66074;50.764;6.090;2023-11-21T05:23:40;10.80;99.90
19803;DHT22;66074;50.764;6.090;2023-11-21T05:26:05;10.80;99.90
19803;DHT22;66074;50.764;6.090;2023-11-21T05:28:31;10.80;99.90
19803;DHT22;66074;50.764;6.090;2023-11-21T05:30:57;10.80;99.90
19803;DHT22;66074;50.764;6.090;2023-11-21T05:33:23;10.80;99.90
19803;DHT22;66074;50.764;6.090;2023-11-21T05:35:48;10.80;99.90
19803;DHT22;66074;50.764;6.090;2023-11-21T05:38:14;10.80;99.90
19803;DHT22;66074;50.764;6.090;2023-11-21T05:40:40;10.80;99.90
19803;DHT22;66074;50.764;6.090;2023-11-21T05:43:06;10.80;99.90
19803;DHT22;66074;50.764;6.090;2023-11-21T05:45:32;10.80;99.90
19803;DHT22;66074;50.764;6.090;2023-11-21T05:47:58;10.80;99.90
19803;DHT22;66074;50.764;6.090;2023-11-21T05:50:24;10.80;99.90
19803;DHT22;66074;50.764;6.090;2023-11-21T05:52:50;10.90;99.90
19803;DHT22;66074;50.764;6.090;2023-11-21T05:55:16;10.80;99.90
19803;DHT22;66074;50.764;6.090;2023-11-21T05:57:43;10.80;99.90
19803;DHT22;66074;50.764;6.090;2023-11-21T06:00:10;10.80;99.90
19803;DHT22;66074;50.764;6.090;2023-11-21T06:02:40;10.80;99.90
19803;DHT22;66074;50.764;6.090;2023-11-21T06:05:07;10.80;99.90
19803;DHT22;66074;50.764;6.090;2023-11-21T06:07:33;10.80;99.90
19803;DHT22;66074;50.764;6.090;2023-11-21T06:09:59;10.90;99.90
19803;DHT22;66074;50.764;6.090;2023-11-21T06:12:24;10.90;99.90
19803;DHT22;66074;50.764;6.090;2023-11-21T06:14:50;10.90;99.90
19803;DHT22;66074;50.764;6.090;2023-11-21T06:17:16;10.90;99.90
19803;DHT22;66074;50.764;6.090;2023-11-21T06:19:43;10.90;99.90
19803;DHT22;66074;50.764;6.090;2023-11-21T06:22:11;10.80;99.90
19803;DHT22;66074;50.764;6.090;2023-11-21T06:40:05;11.00;99.90
19803;DHT22;66074;50.764;6.090;2023-11-21T06:42:31;11.00;99.90
19803;DHT22;66074;50.764;6.090;2023-11-21T06:44:57;11.00;99.90
19803;DHT22;66074;50.764;6.090;2023-11-21T06:47:23;11.00;99.90
19803;DHT22;66074;50.764;6.090;2023-11-21T06:49:53;11.00;99.90
19803;DHT22;66074;50.764;6.090;2023-11-21T06:52:20;10.90;99.90
19803;DHT22;66074;50.764;6.090;2023-11-21T06:54:47;10.90;99.90
19803;DHT22;66074;50.764;6.090;2023-11-21T06:57:13;10.90;99.90
19803;DHT22;66074;50.764;6.090;2023-11-21T06:59:38;10.90;99.90
19803;DHT22;66074;50.764;6.090;2023-11-21T07:02:04;10.90;99.90
19803;DHT22;66074;50.764;6.090;2023-11-21T07:04:33;10.80;99.90
19803;DHT22;66074;50.764;6.090;2023-11-21T07:06:59;10.80;99.90
19803;DHT22;66074;50.764;6.090;2023-11-21T07:09:25;10.80;99.90
19803;DHT22;66074;50.764;6.090;2023-11-21T07:11:54;10.80;99.90
19803;DHT22;66074;50.764;6.090;2023-11-21T07:14:20;10.80;99.90
19803;DHT22;66074;50.764;6.090;2023-11-21T07:16:46;10.80;99.90
19803;DHT22;66074;50.764;6.090;2023-11-21T07:19:12;10.80;99.90
19803;DHT22;66074;50.764;6.090;2023-11-21T07:21:39;10.80;99.90
19803;DHT22;66074;50.764;6.090;2023-11-21T07:24:05;10.80;99.90
19803;DHT22;66074;50.764;6.090;2023-11-21T07:26:32;10.90;99.90
19803;DHT22;66074;50.764;6.090;2023-11-21T07:28:59;10.90;99.90
19803;DHT22;66074;50.764;6.090;2023-11-21T07:31:24;10.90;99.90
19803;DHT22;66074;50.764;6.090;2023-11-21T07:33:51;10.90;99.90
19803;DHT22;66074;50.764;6.090;2023-11-21T07:36:17;11.00;99.90
19803;DHT22;66074;50.764;6.090;2023-11-21T07:38:49;10.90;99.90
19803;DHT22;66074;50.764;6.090;2023-11-21T07:41:15;10.90;99.90
19803;DHT22;66074;50.764;6.090;2023-11-21T07:43:44;10.90;99.90
19803;DHT22;66074;50.764;6.090;2023-11-21T07:46:11;10.90;99.90
19803;DHT22;66074;50.764;6.090;2023-11-21T07:48:38;11.00;99.90
19803;DHT22;66074;50.764;6.090;2023-11-21T07:51:04;11.00;99.90
19803;DHT22;66074;50.764;6.090;2023-11-21T07:53:30;11.00;99.90
19803;DHT22;66074;50.764;6.090;2023-11-21T07:55:56;11.00;99.90
19803;DHT22;66074;50.764;6.090;2023-11-21T07:58:22;11.00;99.90
19803;DHT22;66074;50.764;6.090;2023-11-21T08:00:49;11.00;99.90
19803;DHT22;66074;50.764;6.090;2023-11-21T08:03:15;11.00;99.90
19803;DHT22;66074;50.764;6.090;2023-11-21T08:05:41;11.00;99.90
19803;DHT22;66074;50.764;6.090;2023-11-21T08:08:07;11.00;99.90
19803;DHT22;66074;50.764;6.090;2023-11-21T08:10:33;11.00;99.90
19803;DHT22;66074;50.764;6.090;2023-11-21T08:12:59;11.10;99.90
19803;DHT22;66074;50.764;6.090;2023-11-21T08:15:25;11.10;99.90
19803;DHT22;66074;50.764;6.090;2023-11-21T08:17:50;11.10;99.90
19803;DHT22;66074;50.764;6.090;2023-11-21T08:20:16;11.10;99.90
19803;DHT22;66074;50.764;6.090;2023-11-21T08:22:44;11.10;99.90
19803;DHT22;66074;50.764;6.090;2023-11-21T08:25:10;11.10;99.90
19803;DHT22;66074;50.764;6.090;2023-11-21T08:27:35;11.10;99.90
19803;DHT22;66074;50.764;6.090;2023-11-21T08:30:02;11.10;99.90
19803;DHT22;66074;50.764;6.090;2023-11-21T08:32:28;11.10;99.90
19803;DHT22;66074;50.764;6.090;2023-11-21T08:34:55;11.10;99.90
19803;DHT22;66074;50.764;6.090;2023-11-21T08:37:22;11.10;99.90
19803;DHT22;66074;50.764;6.090;2023-11-21T08:39:48;11.20;99.90
19803;DHT22;66074;50.764;6.090;2023-11-21T08:42:14;11.20;99.90
19803;DHT22;66074;50.764;6.090;2023-11-21T08:44:40;11.20;99.90
19803;DHT22;66074;50.764;6.090;2023-11-21T08:47:06;11.30;99.90
19803;DHT22;66074;50.764;6.090;2023-11-21T08:49:31;11.30;99.90
19803;DHT22;66074;50.764;6.090;2023-11-21T08:51:58;11.40;99.90
19803;DHT22;66074;50.764;6.090;2023-11-21T08:54:26;11.40;99.90
19803;DHT22;66074;50.764;6.090;2023-11-21T08:56:53;11.50;99.90
19803;DHT22;66074;50.764;6.090;2023-11-21T08:59:18;11.50;99.90
19803;DHT22;66074;50.764;6.090;2023-11-21T09:02:03;11.60;99.90
19803;DHT22;66074;50.764;6.090;2023-11-21T09:04:28;11.50;99.90
19803;DHT22;66074;50.764;6.090;2023-11-21T09:06:54;11.60;99.90
19803;DHT22;66074;50.764;6.090;2023-11-21T09:09:19;11.60;99.90
19803;DHT22;66074;50.764;6.090;2023-11-21T09:11:45;11.70;99.90
19803;DHT22;66074;50.764;6.090;2023-11-21T09:14:11;11.60;99.90
19803;DHT22;66074;50.764;6.090;2023-11-21T09:16:40;11.70;99.90
19803;DHT22;66074;50.764;6.090;2023-11-21T09:19:06;11.70;99.90
19803;DHT22;66074;50.764;6.090;2023-11-21T09:21:32;11.80;99.90
19803;DHT22;66074;50.764;6.090;2023-11-21T09:23:59;11.80;99.90
19803;DHT22;66074;50.764;6.090;2023-11-21T09:26:28;11.80;99.90
19803;DHT22;66074;50.764;6.090;2023-11-21T09:28:57;11.90;99.90
19803;DHT22;66074;50.764;6.090;2023-11-21T09:31:23;11.90;99.90
19803;DHT22;66074;50.764;6.090;2023-11-21T09:33:49;11.90;99.90
19803;DHT22;66074;50.764;6.090;2023-11-21T09:36:15;12.00;99.90
19803;DHT22;66074;50.764;6.090;2023-11-21T09:38:41;12.00;99.90
19803;DHT22;66074;50.764;6.090;2023-11-21T09:41:24;12.00;99.90
19803;DHT22;66074;50.764;6.090;2023-11-21T09:43:55;12.00;99.90
19803;DHT22;66074;50.764;6.090;2023-11-21T09:46:23;12.00;99.90
19803;DHT22;66074;50.764;6.090;2023-11-21T09:48:51;12.00;99.90
19803;DHT22;66074;50.764;6.090;2023-11-21T09:51:20;12.00;99.90
19803;DHT22;66074;50.764;6.090;2023-11-21T09:53:50;12.00;99.90
19803;DHT22;66074;50.764;6.090;2023-11-21T09:56:17;12.00;99.90
19803;DHT22;66074;50.764;6.090;2023-11-21T09:58:51;12.00;99.90
19803;DHT22;66074;50.764;6.090;2023-11-21T10:01:18;12.10;99.90
19803;DHT22;66074;50.764;6.090;2023-11-21T10:03:44;12.10;99.90
19803;DHT22;66074;50.764;6.090;2023-11-21T10:06:13;12.10;99.90
19803;DHT22;66074;50.764;6.090;2023-11-21T10:08:40;12.30;99.90
19803;DHT22;66074;50.764;6.090;2023-11-21T10:11:07;12.30;99.90
19803;DHT22;66074;50.764;6.090;2023-11-21T10:13:37;12.30;99.90
19803;DHT22;66074;50.764;6.090;2023-11-21T10:16:04;12.30;99.90
19803;DHT22;66074;50.764;6.090;2023-11-21T10:18:32;12.20;99.90
19803;DHT22;66074;50.764;6.090;2023-11-21T10:21:02;12.20;99.90
19803;DHT22;66074;50.764;6.090;2023-11-21T10:23:29;12.20;99.90
19803;DHT22;66074;50.764;6.090;2023-11-21T10:25:55;12.20;99.90
19803;DHT22;66074;50.764;6.090;2023-11-21T10:28:21;12.30;99.90
19803;DHT22;66074;50.764;6.090;2023-11-21T10:30:46;12.30;99.90
19803;DHT22;66074;50.764;6.090;2023-11-21T10:33:12;12.40;99.90
19803;DHT22;66074;50.764;6.090;2023-11-21T10:35:47;12.40;99.90
19803;DHT22;66074;50.764;6.090;2023-11-21T10:38:19;12.50;99.90
19803;DHT22;66074;50.764;6.090;2023-11-21T10:40:50;12.60;99.90
19803;DHT22;66074;50.764;6.090;2023-11-21T10:43:18;12.60;99.90
19803;DHT22;66074;50.764;6.090;2023-11-21T10:45:44;12.60;99.90
19803;DHT22;66074;50.764;6.090;2023-11-21T10:48:12;12.60;99.90
19803;DHT22;66074;50.764;6.090;2023-11-21T10:50:42;12.60;99.90
19803;DHT22;66074;50.764;6.090;2023-11-21T10:53:07;12.60;99.90
19803;DHT22;66074;50.764;6.090;2023-11-21T10:55:34;12.70;99.90
19803;DHT22;66074;50.764;6.090;2023-11-21T10:58:02;12.70;99.90
19803;DHT22;66074;50.764;6.090;2023-11-21T11:00:30;12.70;99.90
19803;DHT22;66074;50.764;6.090;2023-11-21T11:02:56;12.60;99.90
19803;DHT22;66074;50.764;6.090;2023-11-21T11:05:25;12.70;99.90
19803;DHT22;66074;50.764;6.090;2023-11-21T11:08:12;12.70;99.90
19803;DHT22;66074;50.764;6.090;2023-11-21T11:10:37;12.70;99.90
19803;DHT22;66074;50.764;6.090;2023-11-21T11:13:04;12.80;99.90
19803;DHT22;66074;50.764;6.090;2023-11-21T11:15:32;12.80;99.90
19803;DHT22;66074;50.764;6.090;2023-11-21T11:17:59;12.80;99.90
19803;DHT22;66074;50.764;6.090;2023-11-21T11:20:29;12.70;99.90
19803;DHT22;66074;50.764;6.090;2023-11-21T11:28:57;12.40;99.90
19803;DHT22;66074;50.764;6.090;2023-11-21T11:31:40;12.40;99.90
19803;DHT22;66074;50.764;6.090;2023-11-21T11:34:17;12.40;99.90
19803;DHT22;66074;50.764;6.090;2023-11-21T11:36:53;12.60;99.90
19803;DHT22;66074;50.764;6.090;2023-11-21T11:39:28;12.50;99.90
19803;DHT22;66074;50.764;6.090;2023-11-21T11:41:56;12.60;99.90
19803;DHT22;66074;50.764;6.090;2023-11-21T11:47:27;12.70;99.90
19803;DHT22;66074;50.764;6.090;2023-11-21T11:50:12;12.70;99.90
19803;DHT22;66074;50.764;6.090;2023-11-21T11:52:51;12.60;99.90
19803;DHT22;66074;50.764;6.090;2023-11-21T11:55:19;12.50;99.90
19803;DHT22;66074;50.764;6.090;2023-11-21T11:57:50;12.50;99.90
19803;DHT22;66074;50.764;6.090;2023-11-21T12:00:20;12.60;99.90
19803;DHT22;66074;50.764;6.090;2023-11-21T12:02:57;12.60;99.90
19803;DHT22;66074;50.764;6.090;2023-11-21T12:05:25;12.50;99.90
19803;DHT22;66074;50.764;6.090;2023-11-21T12:07:57;12.50;99.90
19803;DHT22;66074;50.764;6.090;2023-11-21T12:10:27;12.50;99.90
19803;DHT22;66074;50.764;6.090;2023-11-21T12:12:55;12.60;99.90
19803;DHT22;66074;50.764;6.090;2023-11-21T12:15:21;12.70;99.90
19803;DHT22;66074;50.764;6.090;2023-11-21T12:17:48;12.60;99.90
19803;DHT22;66074;50.764;6.090;2023-11-21T12:20:19;12.60;99.90
19803;DHT22;66074;50.764;6.090;2023-11-21T12:22:49;12.70;99.90
19803;DHT22;66074;50.764;6.090;2023-11-21T12:25:16;12.70;99.70
19803;DHT22;66074;50.764;6.090;2023-11-21T12:27:48;12.70;99.90
19803;DHT22;66074;50.764;6.090;2023-11-21T12:30:16;12.80;99.90
19803;DHT22;66074;50.764;6.090;2023-11-21T12:32:47;12.90;99.90
19803;DHT22;66074;50.764;6.090;2023-11-21T12:35:13;12.90;99.90
19803;DHT22;66074;50.764;6.090;2023-11-21T12:37:40;12.90;99.90
19803;DHT22;66074;50.764;6.090;2023-11-21T12:40:06;12.90;99.90
19803;DHT22;66074;50.764;6.090;2023-11-21T12:42:41;13.00;99.90
19803;DHT22;66074;50.764;6.090;2023-11-21T12:45:18;13.00;99.90
19803;DHT22;66074;50.764;6.090;2023-11-21T12:47:44;12.90;99.90
19803;DHT22;66074;50.764;6.090;2023-11-21T12:50:10;12.80;99.30
19803;DHT22;66074;50.764;6.090;2023-11-21T12:52:45;12.70;99.90
19803;DHT22;66074;50.764;6.090;2023-11-21T12:55:22;12.70;99.90
19803;DHT22;66074;50.764;6.090;2023-11-21T12:57:55;12.70;99.90
19803;DHT22;66074;50.764;6.090;2023-11-21T13:00:29;12.60;99.90
19803;DHT22;66074;50.764;6.090;2023-11-21T13:02:58;12.60;99.90
19803;DHT22;66074;50.764;6.090;2023-11-21T13:05:29;12.40;99.90
19803;DHT22;66074;50.764;6.090;2023-11-21T13:08:01;12.40;99.90
19803;DHT22;66074;50.764;6.090;2023-11-21T13:10:32;12.40;99.90
19803;DHT22;66074;50.764;6.090;2023-11-21T13:12:58;12.40;99.90
19803;DHT22;66074;50.764;6.090;2023-11-21T13:15:25;12.30;99.90
19803;DHT22;66074;50.764;6.090;2023-11-21T13:17:51;12.20;99.90
19803;DHT22;66074;50.764;6.090;2023-11-21T13:20:19;12.20;99.90
19803;DHT22;66074;50.764;6.090;2023-11-21T13:22:56;12.10;99.90
19803;DHT22;66074;50.764;6.090;2023-11-21T13:25:29;12.30;99.90
19803;DHT22;66074;50.764;6.090;2023-11-21T13:27:59;12.20;99.90
19803;DHT22;66074;50.764;6.090;2023-11-21T13:30:26;12.10;99.90
19803;DHT22;66074;50.764;6.090;2023-11-21T13:32:56;12.10;99.90
19803;DHT22;66074;50.764;6.090;2023-11-21T13:35:28;12.20;99.90
19803;DHT22;66074;50.764;6.090;2023-11-21T13:38:07;12.10;99.90
19803;DHT22;66074;50.764;6.090;2023-11-21T13:40:34;12.20;99.90
19803;DHT22;66074;50.764;6.090;2023-11-21T13:43:05;12.30;99.90
19803;DHT22;66074;50.764;6.090;2023-11-21T13:45:35;12.30;99.90
19803;DHT22;66074;50.764;6.090;2023-11-21T13:48:02;12.30;99.90
19803;DHT22;66074;50.764;6.090;2023-11-21T13:50:28;12.30;99.90
19803;DHT22;66074;50.764;6.090;2023-11-21T13:53:01;12.30;99.90
19803;DHT22;66074;50.764;6.090;2023-11-21T13:55:34;12.40;99.90
19803;DHT22;66074;50.764;6.090;2023-11-21T13:58:01;12.40;99.90
19803;DHT22;66074;50.764;6.090;2023-11-21T14:00:29;12.30;99.90
19803;DHT22;66074;50.764;6.090;2023-11-21T14:03:14;12.30;99.90
19803;DHT22;66074;50.764;6.090;2023-11-21T14:05:48;12.30;99.90
19803;DHT22;66074;50.764;6.090;2023-11-21T14:08:22;12.30;99.90
19803;DHT22;66074;50.764;6.090;2023-11-21T14:10:57;12.30;99.90
19803;DHT22;66074;50.764;6.090;2023-11-21T14:13:25;12.30;99.90
19803;DHT22;66074;50.764;6.090;2023-11-21T14:15:51;12.30;99.90
19803;DHT22;66074;50.764;6.090;2023-11-21T14:18:19;12.30;99.90
19803;DHT22;66074;50.764;6.090;2023-11-21T14:20:52;12.30;99.90
19803;DHT22;66074;50.764;6.090;2023-11-21T14:23:18;12.20;99.90
19803;DHT22;66074;50.764;6.090;2023-11-21T14:25:44;12.20;99.90
19803;DHT22;66074;50.764;6.090;2023-11-21T14:28:09;12.10;99.90
19803;DHT22;66074;50.764;6.090;2023-11-21T14:30:37;12.20;99.90
19803;DHT22;66074;50.764;6.090;2023-11-21T14:33:05;12.10;99.90
19803;DHT22;66074;50.764;6.090;2023-11-21T14:35:32;12.10;99.90
19803;DHT22;66074;50.764;6.090;2023-11-21T14:37:58;12.20;99.90
19803;DHT22;66074;50.764;6.090;2023-11-21T14:40:25;12.20;99.90
19803;DHT22;66074;50.764;6.090;2023-11-21T14:42:51;12.20;99.90
19803;DHT22;66074;50.764;6.090;2023-11-21T14:45:25;12.30;99.90
19803;DHT22;66074;50.764;6.090;2023-11-21T14:48:10;12.20;99.90
19803;DHT22;66074;50.764;6.090;2023-11-21T14:50:54;12.20;99.90
19803;DHT22;66074;50.764;6.090;2023-11-21T14:53:44;12.20;99.90
19803;DHT22;66074;50.764;6.090;2023-11-21T14:56:22;12.10;99.90
19803;DHT22;66074;50.764;6.090;2023-11-21T14:59:00;12.20;99.90
19803;DHT22;66074;50.764;6.090;2023-11-21T15:01:32;12.20;99.90
19803;DHT22;66074;50.764;6.090;2023-11-21T15:04:21;12.20;99.90
19803;DHT22;66074;50.764;6.090;2023-11-21T15:07:04;12.20;99.90
19803;DHT22;66074;50.764;6.090;2023-11-21T15:09:31;12.20;99.90
19803;DHT22;66074;50.764;6.090;2023-11-21T15:12:00;12.10;99.90
19803;DHT22;66074;50.764;6.090;2023-11-21T15:14:48;12.20;99.90
19803;DHT22;66074;50.764;6.090;2023-11-21T15:17:17;12.20;99.90
19803;DHT22;66074;50.764;6.090;2023-11-21T15:19:54;12.20;99.90
19803;DHT22;66074;50.764;6.090;2023-11-21T15:22:20;12.20;99.90
19803;DHT22;66074;50.764;6.090;2023-11-21T15:24:46;12.20;99.90
19803;DHT22;66074;50.764;6.090;2023-11-21T15:27:14;12.20;99.90
19803;DHT22;66074;50.764;6.090;2023-11-21T15:29:41;12.10;99.90
19803;DHT22;66074;50.764;6.090;2023-11-21T15:32:07;12.10;99.90
19803;DHT22;66074;50.764;6.090;2023-11-21T15:34:37;12.10;99.90
19803;DHT22;66074;50.764;6.090;2023-11-21T15:37:04;12.10;99.90
19803;DHT22;66074;50.764;6.090;2023-11-21T15:39:31;12.00;99.90
19803;DHT22;66074;50.764;6.090;2023-11-21T15:41:57;12.00;99.90
19803;DHT22;66074;50.764;6.090;2023-11-21T15:44:24;12.00;99.90
19803;DHT22;66074;50.764;6.090;2023-11-21T15:46:52;11.90;99.90
19803;DHT22;66074;50.764;6.090;2023-11-21T15:49:18;11.90;99.90
19803;DHT22;66074;50.764;6.090;2023-11-21T15:51:47;12.00;99.90
19803;DHT22;66074;50.764;6.090;2023-11-21T15:54:18;11.90;99.90
19803;DHT22;66074;50.764;6.090;2023-11-21T15:56:45;11.90;99.90
19803;DHT22;66074;50.764;6.090;2023-11-21T15:59:11;11.90;99.90